Time;durP1;ratioP1;P1;durP2;ratioP2;P2;SDS_P1;SDS_P2;PMS_P1;PMS_P2;Temp;Humidity;BMP_temperature;BMP_pressure;BME280_temperature;BME280_humidity;BME280_pressure;Samples;Min_cycle;Max_cycle;Signal;HPM_P1;HPM_P2
2022/08/02 00:00:08;;;;;;;5.78;2.58;;;;;;;17.82;53.71;101737.66;5095988;28;20505;-62
2022/08/02 00:02:34;;;;;;;4.80;1.98;;;;;;;17.89;53.59;101752.34;5091162;28;20398;-62
2022/08/02 00:05:00;;;;;;;5.78;2.35;;;;;;;17.95;53.37;101751.00;5092698;28;20028;-62
2022/08/02 00:07:25;;;;;;;6.68;2.50;;;;;;;17.96;52.02;101755.41;5092334;28;20057;-62
2022/08/02 00:09:51;;;;;;;6.43;2.72;;;;;;;17.89;53.54;101745.13;5091971;28;20040;-62
2022/08/02 00:12:16;;;;;;;4.30;1.90;;;;;;;17.86;53.73;101747.22;5075367;28;20036;-62
2022/08/02 00:14:42;;;;;;;4.80;2.22;;;;;;;17.93;51.33;101740.34;5092498;28;20448;-62
2022/08/02 00:17:07;;;;;;;3.88;2.10;;;;;;;18.04;51.08;101740.34;5092175;28;20550;-62
2022/08/02 00:19:33;;;;;;;4.72;2.33;;;;;;;18.06;50.91;101737.50;5094170;28;20032;-62
2022/08/02 00:21:59;;;;;;;6.47;2.13;;;;;;;18.05;52.03;101746.56;5093617;28;20020;-62
2022/08/02 00:24:24;;;;;;;6.07;2.20;;;;;;;18.03;51.67;101746.72;5092180;28;20089;-62
2022/08/02 00:26:49;;;;;;;4.40;2.38;;;;;;;17.96;53.05;101756.25;5094103;28;20115;-62
2022/08/02 00:29:17;;;;;;;4.88;2.58;;;;;;;17.99;50.87;101752.44;5090251;28;20039;-63
2022/08/02 00:31:43;;;;;;;4.72;2.05;;;;;;;17.94;52.12;101755.50;5091349;28;20071;-62
2022/08/02 00:34:08;;;;;;;3.30;2.10;;;;;;;17.90;52.42;101756.75;5091147;28;20052;-63
2022/08/02 00:36:34;;;;;;;4.05;2.17;;;;;;;17.93;52.30;101760.03;5093616;28;20024;-62
2022/08/02 00:38:59;;;;;;;4.50;2.10;;;;;;;17.85;52.47;101759.81;5092054;28;20032;-62
2022/08/02 00:41:24;;;;;;;4.13;1.85;;;;;;;17.90;51.68;101749.50;5091749;28;20395;-62
2022/08/02 00:43:53;;;;;;;9.57;2.10;;;;;;;17.84;52.50;101750.00;5093061;28;20040;-63
2022/08/02 00:46:19;;;;;;;3.70;2.03;;;;;;;17.81;51.83;101749.41;5093664;28;20040;-62
2022/08/02 00:48:45;;;;;;;5.00;2.00;;;;;;;17.79;51.83;101745.97;5091805;28;20554;-62
2022/08/02 00:51:11;;;;;;;4.30;2.22;;;;;;;17.77;52.12;101743.38;5090912;28;20028;-62
2022/08/02 00:53:37;;;;;;;4.25;1.95;;;;;;;17.84;52.58;101741.06;5093607;28;20031;-62
2022/08/02 00:56:04;;;;;;;2.55;1.75;;;;;;;17.68;52.61;101727.97;5091356;28;20024;-62
2022/08/02 00:58:29;;;;;;;4.60;2.17;;;;;;;17.71;52.58;101728.56;5093516;28;20056;-62
2022/08/02 01:00:59;;;;;;;6.00;2.33;;;;;;;17.73;51.79;101719.50;5090946;28;20055;-62
2022/08/02 01:03:25;;;;;;;5.45;1.98;;;;;;;17.74;52.36;101721.25;5091983;28;20079;-62
2022/08/02 01:05:53;;;;;;;4.10;2.17;;;;;;;17.68;51.85;101712.66;5091746;28;20067;-62
2022/08/02 01:08:19;;;;;;;3.95;1.88;;;;;;;17.59;52.07;101712.53;5090642;28;20106;-62
2022/08/02 01:10:44;;;;;;;7.75;2.55;;;;;;;17.72;51.04;101724.03;5092893;28;20115;-62
2022/08/02 01:13:10;;;;;;;3.47;2.00;;;;;;;17.70;51.03;101715.22;5093171;28;20062;-62
2022/08/02 01:15:42;;;;;;;3.80;1.77;;;;;;;17.66;51.37;101725.38;5091665;28;20478;-62
2022/08/02 01:18:26;;;;;;;3.50;1.85;;;;;;;17.61;51.56;101710.56;5091627;28;20020;-62
2022/08/02 01:21:22;;;;;;;4.32;1.90;;;;;;;17.69;52.29;101725.13;5091881;28;20020;-62
2022/08/02 01:24:00;;;;;;;6.45;2.50;;;;;;;17.66;52.24;101728.06;5090601;28;20063;-62
2022/08/02 01:26:34;;;;;;;3.92;2.08;;;;;;;17.61;52.92;101722.19;5090436;28;20450;-62
2022/08/02 01:29:25;;;;;;;5.80;2.10;;;;;;;17.66;52.87;101722.69;5090259;28;20024;-62
2022/08/02 01:32:15;;;;;;;4.57;2.25;;;;;;;17.63;52.01;101722.94;5090002;28;20024;-62
2022/08/02 01:35:13;;;;;;;6.47;2.28;;;;;;;17.70;52.32;101726.84;5088652;28;20024;-62
2022/08/02 01:37:56;;;;;;;4.78;1.90;;;;;;;17.72;52.32;101729.41;5090572;28;20368;-62
2022/08/02 01:40:33;;;;;;;4.53;1.88;;;;;;;17.67;53.00;101719.00;5090220;28;20039;-62
2022/08/02 01:42:59;;;;;;;7.63;2.30;;;;;;;17.52;53.74;101720.22;5090880;28;20024;-62
2022/08/02 01:45:31;;;;;;;5.47;1.80;;;;;;;17.57;53.32;101714.50;5089181;28;20023;-62
2022/08/02 01:47:59;;;;;;;5.93;2.10;;;;;;;17.65;52.72;101710.22;5093534;28;20111;-62
2022/08/02 01:50:32;;;;;;;6.13;2.10;;;;;;;17.62;53.29;101715.00;5090964;28;20023;-62
2022/08/02 01:53:01;;;;;;;5.88;2.30;;;;;;;17.62;52.73;101699.72;5092937;28;20028;-62
2022/08/02 01:55:46;;;;;;;6.75;2.67;;;;;;;17.48;52.87;101703.47;5088093;28;20024;-62
2022/08/02 01:58:15;;;;;;;3.88;2.20;;;;;;;17.28;53.75;101704.19;5092889;28;20084;-62
2022/08/02 02:00:42;;;;;;;4.07;2.13;;;;;;;17.41;54.16;101702.25;5090633;28;20028;-62
2022/08/02 02:03:19;;;;;;;5.85;2.22;;;;;;;17.40;54.15;101695.16;5089914;28;20178;-63
2022/08/02 02:05:49;;;;;;;7.93;2.75;;;;;;;17.31;54.41;101701.25;5088241;28;20368;-62
2022/08/02 02:08:18;;;;;;;6.72;2.30;;;;;;;17.22;54.54;101692.06;5092282;28;20110;-62
2022/08/02 02:10:44;;;;;;;6.45;2.17;;;;;;;17.20;55.83;101693.16;5092306;28;20024;-62
2022/08/02 02:13:17;;;;;;;7.75;2.75;;;;;;;17.17;55.19;101688.88;5089793;28;20110;-62
2022/08/02 02:15:48;;;;;;;5.28;2.38;;;;;;;17.13;55.88;101675.81;5090365;28;20451;-62
2022/08/02 02:18:23;;;;;;;9.68;2.78;;;;;;;17.26;55.62;101676.53;5090605;28;20047;-62
2022/08/02 02:20:49;;;;;;;5.88;2.05;;;;;;;17.18;55.68;101679.00;5091661;28;20032;-62
2022/08/02 02:23:16;;;;;;;5.90;2.47;;;;;;;17.16;55.92;101665.66;5103129;28;20024;-62
2022/08/02 02:25:42;;;;;;;4.10;1.80;;;;;;;17.16;56.54;101662.97;5070345;28;20041;-62
2022/08/02 02:28:18;;;;;;;9.05;2.20;;;;;;;17.20;56.04;101658.19;5089880;28;20031;-62
2022/08/02 02:30:47;;;;;;;6.30;2.35;;;;;;;17.12;56.28;101657.94;5090162;28;20070;-62
2022/08/02 02:33:17;;;;;;;7.97;2.42;;;;;;;17.19;56.47;101662.72;5090559;28;20023;-62
2022/08/02 02:35:45;;;;;;;5.68;2.53;;;;;;;17.20;57.03;101661.75;5090170;28;20419;-62
2022/08/02 02:38:16;;;;;;;6.20;2.50;;;;;;;17.16;56.48;101665.66;5118842;27;20454;-62
2022/08/02 02:40:44;;;;;;;4.55;2.30;;;;;;;17.11;56.69;101665.16;5087567;28;20023;-62
2022/08/02 02:43:13;;;;;;;8.75;2.80;;;;;;;17.08;57.17;101664.53;5089592;28;20104;-62
2022/08/02 02:45:40;;;;;;;7.45;2.42;;;;;;;17.10;57.20;101665.28;5088104;28;20012;-62
2022/08/02 02:48:07;;;;;;;5.10;2.47;;;;;;;17.19;57.53;101661.88;5088779;28;20020;-62
2022/08/02 02:50:33;;;;;;;6.43;2.85;;;;;;;17.13;57.67;101667.75;5088848;28;20069;-62
2022/08/02 02:53:00;;;;;;;5.68;2.47;;;;;;;17.11;57.51;101653.56;5089889;28;20111;-62
2022/08/02 02:55:26;;;;;;;6.35;2.40;;;;;;;17.09;57.80;101658.19;5093733;28;20020;-62
2022/08/02 02:57:53;;;;;;;12.40;2.50;;;;;;;17.02;58.58;101661.34;5089674;28;20032;-62
2022/08/02 03:01:26;;;;;;;6.05;2.60;;;;;;;17.07;58.22;101671.75;5089518;28;20031;-62
2022/08/02 03:03:06;;;;;;;7.00;2.47;;;;;;;16.94;58.54;101669.16;5088726;28;20043;-62
2022/08/02 03:05:31;;;;;;;7.25;2.63;;;;;;;16.93;58.51;101655.84;5090895;28;20129;-62
2022/08/02 03:07:57;;;;;;;5.57;2.75;;;;;;;16.89;58.85;101655.22;5088646;28;20059;-62
2022/08/02 03:10:23;;;;;;;5.95;2.50;;;;;;;16.87;59.37;101653.63;5090786;28;20089;-62
2022/08/02 03:12:49;;;;;;;7.30;2.67;;;;;;;16.85;58.73;101652.88;5089989;28;20498;-62
2022/08/02 03:15:16;;;;;;;6.75;2.60;;;;;;;16.75;59.50;101655.38;5090068;28;20032;-62
2022/08/02 03:17:45;;;;;;;6.68;2.50;;;;;;;16.85;58.99;101652.88;5089020;28;20482;-62
2022/08/02 03:20:16;;;;;;;5.85;2.80;;;;;;;16.67;58.31;101647.03;5089776;28;20031;-62
2022/08/02 03:22:42;;;;;;;4.57;2.90;;;;;;;16.76;59.06;101651.75;5089950;28;20031;-62
2022/08/02 03:25:09;;;;;;;8.45;2.72;;;;;;;16.75;59.09;101645.50;5089613;28;20024;-62
2022/08/02 03:27:35;;;;;;;6.88;3.30;;;;;;;16.71;59.58;101649.41;5087331;28;20051;-62
2022/08/02 03:30:03;;;;;;;4.55;2.92;;;;;;;16.72;59.12;101664.53;5087819;28;20494;-62
2022/08/02 03:32:31;;;;;;;9.50;3.50;;;;;;;16.77;58.42;101667.75;5088599;28;20028;-62
2022/08/02 03:34:59;;;;;;;8.38;2.95;;;;;;;16.71;59.63;101660.13;5086709;28;20532;-62
2022/08/02 03:37:25;;;;;;;5.93;3.53;;;;;;;16.76;58.67;101659.81;5088114;28;20728;-62
2022/08/02 03:39:52;;;;;;;6.40;2.83;;;;;;;16.79;59.07;101646.13;5094181;28;20510;-62
2022/08/02 03:42:21;;;;;;;7.15;2.85;;;;;;;16.79;59.44;101635.38;5093444;28;20093;-62
2022/08/02 03:44:48;;;;;;;7.20;3.00;;;;;;;16.70;59.69;101636.06;5096061;28;20031;-62
2022/08/02 03:47:14;;;;;;;4.15;2.28;;;;;;;16.79;59.00;101636.28;5092294;28;20026;-62
2022/08/02 03:49:42;;;;;;;5.63;3.20;;;;;;;16.83;59.12;101636.03;5091999;28;20027;-62
2022/08/02 03:52:08;;;;;;;9.75;3.33;;;;;;;16.76;58.94;101619.50;5095441;28;20024;-62
2022/08/02 03:54:34;;;;;;;9.30;3.40;;;;;;;16.75;59.80;101629.38;5112710;28;20140;-62
2022/08/02 03:56:59;;;;;;;5.70;3.10;;;;;;;16.73;60.16;101634.00;5090945;28;20024;-62
2022/08/02 03:59:25;;;;;;;6.88;3.58;;;;;;;16.79;59.69;101630.00;5093389;28;20032;-62
2022/08/02 04:01:55;;;;;;;7.00;3.05;;;;;;;16.75;60.30;101629.38;5091615;28;20085;-62
2022/08/02 04:04:22;;;;;;;5.80;3.20;;;;;;;16.67;60.55;101629.09;5093190;28;20036;-62
2022/08/02 04:06:48;;;;;;;5.18;3.25;;;;;;;16.70;60.45;101628.00;5092363;28;20067;-62
2022/08/02 04:09:15;;;;;;;6.28;3.30;;;;;;;16.69;60.31;101618.25;5091911;28;20732;-62
2022/08/02 04:11:41;;;;;;;9.20;3.90;;;;;;;16.74;60.46;101618.75;5093477;28;20111;-62
2022/08/02 04:14:09;;;;;;;7.95;3.92;;;;;;;16.70;60.63;101606.50;5092479;28;20107;-62
2022/08/02 04:16:44;;;;;;;10.75;3.80;;;;;;;16.72;60.44;101612.63;5092738;28;20499;-62
2022/08/02 04:19:14;;;;;;;7.90;3.63;;;;;;;16.70;60.93;101617.25;5091103;28;20099;-62
2022/08/02 04:21:42;;;;;;;7.47;3.53;;;;;;;16.70;61.55;101604.69;5092886;28;20020;-62
2022/08/02 04:24:10;;;;;;;10.88;3.85;;;;;;;16.77;61.34;101616.72;5092790;28;20471;-62
2022/08/02 04:26:36;;;;;;;6.57;3.88;;;;;;;16.67;61.39;101623.72;5091339;28;20437;-62
2022/08/02 04:29:04;;;;;;;9.18;3.78;;;;;;;16.64;62.19;101628.47;5092968;28;20027;-62
2022/08/02 04:31:31;;;;;;;5.50;3.75;;;;;;;16.67;61.79;101623.72;5091495;28;20034;-63
2022/08/02 04:33:56;;;;;;;8.15;3.78;;;;;;;16.67;62.04;101622.88;5093938;28;20483;-62
2022/08/02 04:36:23;;;;;;;8.88;3.70;;;;;;;16.64;62.31;101626.63;5092427;28;20030;-62
2022/08/02 04:38:49;;;;;;;7.00;3.83;;;;;;;16.63;62.59;101633.00;5092729;28;20107;-62
2022/08/02 04:41:15;;;;;;;6.13;3.80;;;;;;;16.64;63.24;101617.72;5091950;28;20020;-62
2022/08/02 04:43:40;;;;;;;8.88;4.88;;;;;;;16.73;62.87;101634.00;5090475;28;20028;-62
2022/08/02 04:46:08;;;;;;;9.15;4.35;;;;;;;16.74;63.06;101635.72;5091140;28;20051;-62
2022/08/02 04:48:34;;;;;;;7.13;4.30;;;;;;;16.64;63.23;101623.94;5095547;28;20161;-62
2022/08/02 04:50:59;;;;;;;8.30;4.05;;;;;;;16.77;63.68;101624.78;5074106;28;20556;-62
2022/08/02 04:53:25;;;;;;;6.13;4.30;;;;;;;16.78;63.79;101622.94;5091223;28;20114;-62
2022/08/02 04:55:50;;;;;;;9.48;5.13;;;;;;;16.82;63.79;101619.03;5090464;28;20040;-62
2022/08/02 04:58:16;;;;;;;7.75;4.60;;;;;;;16.82;64.05;101616.34;5091532;28;20048;-62
2022/08/02 05:00:44;;;;;;;9.98;5.38;;;;;;;16.85;64.19;101620.63;5088905;28;20036;-63
2022/08/02 05:03:09;;;;;;;6.45;4.30;;;;;;;16.45;64.68;101560.06;5091495;28;20040;-62
2022/08/02 05:05:39;;;;;;;8.77;5.18;;;;;;;16.80;65.46;101618.31;5089696;28;20024;-62
2022/08/02 05:08:05;;;;;;;11.35;4.80;;;;;;;16.88;65.46;101604.28;5090763;28;20510;-62
2022/08/02 05:10:33;;;;;;;8.80;5.15;;;;;;;16.83;65.84;101617.22;5074315;28;20031;-62
2022/08/02 05:13:03;;;;;;;7.53;4.95;;;;;;;16.94;66.20;101617.22;5093304;28;20069;-62
2022/08/02 05:15:28;;;;;;;;;;;;;;;17.06;64.37;101610.91;5098414;28;20034;-62
2022/08/02 05:17:53;;;;;;;10.80;6.05;;;;;;;17.02;65.91;101612.97;5111802;28;19912;-62
2022/08/02 05:20:19;;;;;;;12.07;6.07;;;;;;;17.00;66.34;101612.25;5101552;28;20051;-62
2022/08/02 05:22:45;;;;;;;11.45;6.10;;;;;;;17.03;67.45;101603.94;5091657;28;20031;-62
2022/08/02 05:25:10;;;;;;;12.13;6.43;;;;;;;17.11;66.65;101607.84;5089616;28;20027;-62
2022/08/02 05:27:36;;;;;;;7.75;5.88;;;;;;;17.21;66.56;101596.25;5091294;28;20024;-62
2022/08/02 05:30:03;;;;;;;8.50;6.10;;;;;;;17.29;66.34;101601.00;5089632;28;20490;-62
2022/08/02 05:32:29;;;;;;;8.57;6.38;;;;;;;17.39;66.60;101598.47;5090969;28;20027;-62
2022/08/02 05:34:55;;;;;;;8.98;6.15;;;;;;;17.43;66.82;101597.22;5091951;28;20032;-62
2022/08/02 05:37:20;;;;;;;12.82;6.68;;;;;;;17.42;66.98;101587.47;5092449;28;20093;-62
2022/08/02 05:39:46;;;;;;;11.52;6.10;;;;;;;17.54;67.24;101602.63;5089270;28;20077;-62
2022/08/02 05:42:11;;;;;;;12.68;6.88;;;;;;;17.64;67.37;101605.41;5108250;28;20074;-62
2022/08/02 05:44:37;;;;;;;12.82;6.95;;;;;;;17.70;67.13;101600.38;5111204;28;20019;-62
2022/08/02 05:47:02;;;;;;;9.45;6.30;;;;;;;17.79;67.10;101603.34;5109588;28;20421;-62
2022/08/02 05:49:28;;;;;;;13.07;6.40;;;;;;;17.84;67.10;101599.28;5103692;28;20040;-62
2022/08/02 05:52:06;;;;;;;10.38;6.40;;;;;;;17.90;67.34;101604.16;5089692;28;20082;-62
2022/08/02 05:54:37;;;;;;;10.68;7.13;;;;;;;18.00;67.40;101616.88;5088896;28;20074;-62
2022/08/02 05:57:16;;;;;;;8.73;6.85;;;;;;;18.06;67.25;101614.56;5091233;28;20520;-62
2022/08/02 05:59:56;;;;;;;10.00;6.73;;;;;;;18.15;67.06;101623.72;5091726;28;20036;-62
2022/08/02 06:02:29;;;;;;;12.50;6.90;;;;;;;18.18;67.23;101628.84;5090207;28;20051;-62
2022/08/02 06:05:10;;;;;;;10.70;6.40;;;;;;;18.21;66.97;101625.03;5089619;28;20030;-62
2022/08/02 06:07:36;;;;;;;13.25;6.97;;;;;;;18.15;67.81;101632.63;5089637;28;20020;-62
2022/08/02 06:10:08;;;;;;;9.43;6.65;;;;;;;18.26;67.71;101629.03;5090115;28;20031;-62
2022/08/02 06:12:48;;;;;;;10.63;7.10;;;;;;;18.31;67.66;101634.06;5089277;28;20024;-62
2022/08/02 06:15:15;;;;;;;10.75;7.60;;;;;;;18.35;67.70;101641.75;5089182;28;20111;-62
2022/08/02 06:17:42;;;;;;;9.93;7.38;;;;;;;18.48;67.36;101638.88;5091633;28;20541;-62
2022/08/02 06:20:12;;;;;;;10.75;7.22;;;;;;;18.51;67.88;101633.22;5085365;28;20024;-62
2022/08/02 06:22:44;;;;;;;14.73;7.57;;;;;;;18.46;68.14;101637.31;5090210;28;20016;-60
2022/08/02 06:25:11;;;;;;;9.75;7.45;;;;;;;18.42;68.06;101643.94;5088263;28;20032;-60
2022/08/02 06:27:38;;;;;;;11.23;7.22;;;;;;;18.51;67.98;101624.31;5090864;28;20024;-59
2022/08/02 06:30:04;;;;;;;14.32;7.88;;;;;;;18.54;68.03;101627.59;5089601;28;20048;-59
2022/08/02 06:32:33;;;;;;;18.27;7.65;;;;;;;18.59;68.13;101622.66;5091823;28;20020;-60
2022/08/02 06:34:58;;;;;;;11.45;7.93;;;;;;;18.69;68.14;101619.19;5091302;28;20111;-60
2022/08/02 06:37:59;;;;;;;14.73;8.52;;;;;;;18.79;67.27;101620.97;5072320;28;20084;-60
2022/08/02 06:41:13;;;;;;;12.27;8.65;;;;;;;19.01;66.77;101617.31;5088234;28;20036;-59
2022/08/02 06:44:01;;;;;;;11.82;8.13;;;;;;;19.19;66.83;101620.25;5006662;28;20026;-58
2022/08/02 06:46:28;;;;;;;15.15;8.38;;;;;;;19.31;66.85;101609.38;5004437;28;20108;-59
2022/08/02 06:48:57;;;;;;;17.77;8.25;;;;;;;19.35;66.95;101600.88;5065012;28;20390;-60
2022/08/02 06:51:22;;;;;;;11.97;8.07;;;;;;;19.48;67.25;101608.75;5089275;28;20082;-60
2022/08/02 06:53:51;;;;;;;13.15;9.50;;;;;;;19.57;67.58;101610.63;5087926;28;20317;-60
2022/08/02 06:56:16;;;;;;;15.05;9.90;;;;;;;19.66;67.84;101611.69;5088345;28;20103;-61
2022/08/02 06:58:41;;;;;;;14.85;9.75;;;;;;;19.74;67.68;101607.31;5090415;28;20141;-60
2022/08/02 07:01:09;;;;;;;12.18;10.02;;;;;;;19.83;67.12;101610.19;5088495;28;20368;-60
2022/08/02 07:03:37;;;;;;;17.98;9.75;;;;;;;19.86;67.52;101607.19;5090106;28;20113;-60
2022/08/02 07:06:07;;;;;;;18.65;10.52;;;;;;;19.90;67.54;101600.50;5089488;28;20550;-60
2022/08/02 07:08:34;;;;;;;15.52;11.18;;;;;;;19.97;68.17;101607.06;5089710;28;20032;-60
2022/08/02 07:11:07;;;;;;;16.00;10.30;;;;;;;20.12;68.19;101613.78;5087690;28;20028;-60
2022/08/02 07:13:33;;;;;;;16.02;9.90;;;;;;;20.18;67.32;101623.16;5094506;28;20065;-59
2022/08/02 07:15:58;;;;;;;14.38;9.70;;;;;;;20.25;68.06;101624.31;5093149;28;20028;-60
2022/08/02 07:18:26;;;;;;;13.00;8.57;;;;;;;20.36;67.52;101620.63;5092612;28;20038;-60
2022/08/02 07:20:52;;;;;;;10.85;9.00;;;;;;;20.35;67.00;101617.06;5091675;28;20028;-60
2022/08/02 07:23:18;;;;;;;12.57;8.48;;;;;;;20.40;66.35;101611.22;5095118;28;20382;-60
2022/08/02 07:25:44;;;;;;;13.13;7.72;;;;;;;20.41;66.02;101599.41;5092451;28;20020;-59
2022/08/02 07:28:14;;;;;;;12.60;8.23;;;;;;;20.41;65.96;101594.88;5091219;28;20103;-59
2022/08/02 07:30:40;;;;;;;12.00;7.55;;;;;;;20.48;65.63;101605.13;5090608;28;20035;-60
2022/08/02 07:33:06;;;;;;;10.32;6.80;;;;;;;20.52;65.57;101606.53;5093471;28;20024;-60
2022/08/02 07:35:31;;;;;;;7.53;6.50;;;;;;;20.53;66.26;101598.31;5092264;28;20505;-59
2022/08/02 07:37:57;;;;;;;9.13;6.80;;;;;;;20.64;65.98;101606.25;5090095;28;20020;-60
2022/08/02 07:40:28;;;;;;;9.27;6.85;;;;;;;20.68;65.82;101600.56;5093238;28;20039;-59
2022/08/02 07:42:55;;;;;;;9.73;7.47;;;;;;;20.78;66.44;101601.41;5092196;28;20028;-60
2022/08/02 07:45:21;;;;;;;8.20;7.25;;;;;;;20.71;65.54;101586.78;5090387;28;20019;-60
2022/08/02 07:47:47;;;;;;;11.45;6.63;;;;;;;20.82;65.38;101601.00;5093267;28;20035;-60
2022/08/02 07:50:14;;;;;;;9.63;6.95;;;;;;;20.90;64.59;101596.69;5092857;28;20024;-60
2022/08/02 07:52:41;;;;;;;8.32;6.03;;;;;;;21.01;64.93;101610.91;5093055;28;20126;-61
2022/08/02 07:55:08;;;;;;;5.93;5.22;;;;;;;21.07;64.26;101609.47;5094649;28;20031;-60
2022/08/02 07:57:34;;;;;;;7.10;5.07;;;;;;;21.20;64.56;101611.84;5085684;28;20124;-60
2022/08/02 07:59:59;;;;;;;6.05;4.50;;;;;;;21.27;63.08;101608.41;5091275;28;20114;-59
2022/08/02 08:02:25;;;;;;;6.85;5.03;;;;;;;21.33;62.73;101597.00;5090513;28;20048;-60
2022/08/02 08:04:51;;;;;;;9.25;4.72;;;;;;;21.39;63.10;101595.56;5089392;28;20617;-61
2022/08/02 08:07:17;;;;;;;5.45;4.43;;;;;;;21.52;63.04;101598.78;5096347;28;20255;-59
2022/08/02 08:09:43;;;;;;;5.35;4.28;;;;;;;21.66;62.80;101594.72;5096413;28;20028;-57
2022/08/02 08:12:10;;;;;;;6.72;3.70;;;;;;;21.73;62.66;101598.53;5090340;28;21022;-60
2022/08/02 08:14:37;;;;;;;5.80;3.45;;;;;;;21.79;60.88;101605.19;5089612;28;20031;-59
2022/08/02 08:17:07;;;;;;;10.13;3.90;;;;;;;21.82;61.25;101604.88;5083629;28;20380;-59
2022/08/02 08:19:33;;;;;;;8.05;4.55;;;;;;;21.79;60.70;101607.91;5088196;28;20036;-59
2022/08/02 08:21:59;;;;;;;4.78;3.90;;;;;;;21.84;60.70;101618.28;5089796;28;20028;-59
2022/08/02 08:24:25;;;;;;;8.02;3.92;;;;;;;21.96;60.72;101608.94;5089600;28;20147;-59
2022/08/02 08:26:54;;;;;;;5.38;3.30;;;;;;;22.02;59.50;101610.19;5090098;28;20032;-58
2022/08/02 08:29:23;;;;;;;4.30;3.20;;;;;;;22.10;59.59;101603.00;5086994;28;20046;-58
2022/08/02 08:31:49;;;;;;;3.80;3.40;;;;;;;22.13;58.74;101593.72;5090320;28;20157;-58
2022/08/02 08:34:16;;;;;;;4.78;2.92;;;;;;;22.29;58.23;101599.31;5091914;28;20095;-58
2022/08/02 08:36:44;;;;;;;3.63;3.10;;;;;;;22.35;57.25;101590.56;5093923;28;20487;-58
2022/08/02 08:39:09;;;;;;;3.40;2.78;;;;;;;22.51;58.31;101592.56;5091208;28;20062;-58
2022/08/02 08:41:35;;;;;;;4.28;2.40;;;;;;;22.58;56.56;101598.22;5093003;28;20084;-59
2022/08/02 08:44:01;;;;;;;4.20;2.60;;;;;;;22.57;54.52;101597.38;5092602;28;20062;-59
2022/08/02 08:46:33;;;;;;;2.67;2.00;;;;;;;22.63;55.06;101596.75;5093339;28;20035;-59
2022/08/02 08:49:05;;;;;;;5.32;2.42;;;;;;;22.72;54.38;101604.94;5091403;28;20514;-59
2022/08/02 08:51:36;;;;;;;3.90;2.15;;;;;;;22.71;54.39;101605.94;5092356;28;20024;-58
2022/08/02 08:54:05;;;;;;;3.67;2.30;;;;;;;22.80;53.79;101614.00;5091094;28;20074;-58
2022/08/02 08:56:34;;;;;;;5.82;2.60;;;;;;;22.71;53.36;101609.53;5092014;28;20881;-59
2022/08/02 08:59:03;;;;;;;2.97;2.17;;;;;;;22.81;53.78;101609.41;5092622;28;20034;-59
2022/08/02 09:01:31;;;;;;;4.28;2.00;;;;;;;22.76;51.68;101592.75;5092092;28;20395;-59
2022/08/02 09:03:57;;;;;;;2.75;1.88;;;;;;;22.85;51.31;101598.09;5092074;28;20052;-59
2022/08/02 09:06:23;;;;;;;3.05;1.85;;;;;;;22.93;51.03;101610.00;5090858;28;20032;-58
2022/08/02 09:08:49;;;;;;;7.55;2.00;;;;;;;22.98;51.65;101603.13;5094145;28;20042;-59
2022/08/02 09:11:16;;;;;;;3.83;2.13;;;;;;;23.06;51.61;101603.19;5091371;28;20403;-59
2022/08/02 09:13:49;;;;;;;3.83;2.25;;;;;;;23.07;51.59;101604.88;5091732;28;20016;-59
2022/08/02 09:16:15;;;;;;;3.33;2.53;;;;;;;23.15;51.32;101605.94;5092074;28;20123;-58
2022/08/02 09:18:45;;;;;;;2.83;2.17;;;;;;;23.24;50.68;101599.56;5091290;28;20494;-58
2022/08/02 09:21:14;;;;;;;3.85;2.20;;;;;;;23.32;51.15;101591.44;5087432;28;20081;-59
2022/08/02 09:23:46;;;;;;;2.80;2.20;;;;;;;23.42;51.58;101597.63;5090203;28;20043;-58
2022/08/02 09:26:15;;;;;;;3.50;2.22;;;;;;;23.44;47.48;101595.59;5090947;28;20032;-59
2022/08/02 09:28:41;;;;;;;;;;;;;;;23.51;50.19;101596.63;5092530;28;20032;-59
2022/08/02 09:31:06;;;;;;;4.22;2.10;;;;;;;23.66;48.20;101599.59;5091749;28;19951;-59
2022/08/02 09:33:32;;;;;;;4.53;2.03;;;;;;;23.76;47.49;101602.19;5090899;28;20809;-59
2022/08/02 09:36:03;;;;;;;4.80;2.10;;;;;;;23.79;46.11;101601.84;5072705;28;20114;-59
2022/08/02 09:38:28;;;;;;;2.92;1.90;;;;;;;23.79;44.20;101593.69;5091621;28;20372;-59
2022/08/02 09:40:54;;;;;;;4.25;2.05;;;;;;;23.86;44.83;101599.34;5089843;28;20031;-59
2022/08/02 09:43:19;;;;;;;4.18;2.00;;;;;;;23.89;45.29;101601.72;5091554;28;20093;-59
2022/08/02 09:45:45;;;;;;;2.88;1.70;;;;;;;23.98;45.30;101608.88;5090475;28;20441;-59
2022/08/02 09:48:11;;;;;;;1.92;1.60;;;;;;;23.99;43.60;101605.13;5089340;28;20081;-59
2022/08/02 09:50:39;;;;;;;4.20;2.17;;;;;;;24.11;44.11;101601.09;5090053;28;20077;-59
2022/08/02 09:53:05;;;;;;;3.85;1.70;;;;;;;24.12;43.75;101605.53;5090657;28;20024;-58
2022/08/02 09:55:33;;;;;;;3.50;1.70;;;;;;;24.29;43.41;101606.38;5089342;28;20027;-58
2022/08/02 09:58:16;;;;;;;5.13;2.10;;;;;;;24.47;44.04;101614.41;5091105;28;20450;-59
2022/08/02 10:00:55;;;;;;;3.33;1.77;;;;;;;24.49;43.43;101604.22;5089968;28;20027;-58
2022/08/02 10:03:21;;;;;;;2.58;1.38;;;;;;;24.58;43.90;101602.34;5090880;28;20044;-58
2022/08/02 10:05:54;;;;;;;2.47;1.60;;;;;;;24.60;42.44;101593.00;5089687;28;20353;-58
2022/08/02 10:08:20;;;;;;;5.43;1.60;;;;;;;24.70;41.91;101592.81;5090945;28;20472;-59
2022/08/02 10:10:46;;;;;;;4.15;1.83;;;;;;;24.86;41.53;101594.69;5089679;28;20069;-59
2022/08/02 10:13:12;;;;;;;2.85;1.70;;;;;;;24.84;41.65;101589.41;5091105;28;20386;-59
2022/08/02 10:15:38;;;;;;;3.20;1.75;;;;;;;24.89;41.79;101592.47;5089892;28;20024;-59
2022/08/02 10:18:07;;;;;;;5.18;1.40;;;;;;;25.07;40.86;101603.16;5091128;28;20023;-59
2022/08/02 10:20:43;;;;;;;4.15;1.60;;;;;;;25.07;41.76;101589.53;5090507;28;20592;-59
2022/08/02 10:23:12;;;;;;;1.63;1.45;;;;;;;25.17;40.15;101589.38;5090471;28;20020;-59
2022/08/02 10:25:43;;;;;;;2.35;1.55;;;;;;;25.35;40.55;101592.72;5089109;28;20016;-58
2022/08/02 10:28:10;;;;;;;5.53;1.40;;;;;;;25.36;39.46;101578.09;5089679;28;20024;-59
2022/08/02 10:30:38;;;;;;;7.13;1.50;;;;;;;25.32;39.94;101578.59;5088590;28;20028;-59
2022/08/02 10:33:07;;;;;;;4.65;1.52;;;;;;;25.48;39.54;101577.69;5088847;28;20066;-58
2022/08/02 10:35:36;;;;;;;2.90;1.20;;;;;;;25.56;39.94;101574.91;5090848;28;20020;-59
2022/08/02 10:38:06;;;;;;;3.47;1.30;;;;;;;25.68;39.76;101581.69;5090985;28;20471;-58
2022/08/02 10:40:42;;;;;;;3.63;1.30;;;;;;;25.65;40.05;101589.34;5090085;28;20031;-59
2022/08/02 10:43:10;;;;;;;2.35;1.38;;;;;;;25.67;38.77;101579.97;5089319;28;20024;-58
2022/08/02 10:45:36;;;;;;;2.05;1.30;;;;;;;25.61;38.63;101578.81;5090723;28;20024;-58
2022/08/02 10:48:14;;;;;;;5.75;1.73;;;;;;;25.58;39.38;101583.78;5091509;28;20051;-59
2022/08/02 10:50:48;;;;;;;10.93;1.70;;;;;;;25.55;38.97;101586.84;5094928;28;20428;-59
2022/08/02 10:53:33;;;;;;;5.45;1.67;;;;;;;25.55;40.05;101586.84;5092235;28;20044;-60
2022/08/02 10:56:03;;;;;;;3.22;1.40;;;;;;;25.57;39.78;101582.94;5092122;28;20024;-58
2022/08/02 10:58:31;;;;;;;4.63;1.48;;;;;;;25.67;38.92;101582.69;5094526;28;20060;-59
2022/08/02 11:01:32;;;;;;;3.90;1.27;;;;;;;25.85;39.59;101584.34;5094869;28;20024;-59
2022/08/02 11:03:59;;;;;;;5.03;1.20;;;;;;;25.93;38.54;101581.56;5093017;28;20040;-59
2022/08/02 11:06:25;;;;;;;4.82;1.67;;;;;;;26.04;37.74;101582.00;5093589;28;20059;-58
2022/08/02 11:09:26;;;;;;;3.30;1.20;;;;;;;25.94;38.72;101578.69;5094026;28;20063;-58
2022/08/02 11:12:05;;;;;;;3.95;1.60;;;;;;;26.01;38.36;101584.25;5093487;28;20028;-58
2022/08/02 11:14:31;;;;;;;;;;;;;;;26.12;39.27;101575.66;5095072;28;20071;-59
2022/08/02 11:16:57;;;;;;;2.17;1.25;;;;;;;26.13;38.21;101573.78;5095903;28;19919;-58
2022/08/02 11:19:24;;;;;;;6.45;1.38;;;;;;;26.30;37.90;101575.34;5094673;28;20028;-58
2022/08/02 11:22:09;;;;;;;9.00;1.63;;;;;;;26.48;37.72;101573.16;5094605;28;20030;-59
2022/08/02 11:24:38;;;;;;;4.65;1.60;;;;;;;26.48;37.36;101578.63;5092486;28;20066;-58
2022/08/02 11:27:08;;;;;;;2.45;1.20;;;;;;;26.45;36.17;101565.34;5094117;28;20024;-58
2022/08/02 11:29:39;;;;;;;3.88;1.20;;;;;;;26.59;36.01;101560.13;5095354;28;20020;-59
2022/08/02 11:32:27;;;;;;;3.38;1.30;;;;;;;26.63;35.80;101561.47;5094361;28;20066;-59